Flight Track Log - Related Links

Times and Time Zones

All times are in EDT time to prevent confusion due to time zone crossing. See the N522BD flight status page for this flight to view local times or setup timezone preferences in your user account.

Time Position Orientation Groundspeed Altitude Reporting Facility
EDT Latitude Longitude Course Direction KTS MPH feet Rate Location/Type
Wed 08:46:27 PM 42.4667 -71.3167 232° Southwest 170 196 1,300  Level KA90
Wed 08:48:15 PM 42.4000 -71.4336 232° Southwest 223 257 5,000 2,464 Climbing Boston Center
Wed 08:49:15 PM 42.3569 -71.5044 231° Southwest 265 305 8,200 2,579 Climbing Boston Center
Wed 08:50:16 PM 42.3392 -71.6144 258° West 270 311 10,200 1,820 Climbing Boston Center
Wed 08:51:17 PM 42.3397 -71.7125 270° West 289 333 11,900 1,736 Climbing Boston Center
Wed 08:52:17 PM 42.3197 -71.8392 258° West 335 386 13,700 1,729 Climbing Boston Center
Wed 08:53:15 PM 42.2931 -71.9797 256° West 379 436 15,300 1,200 Climbing Boston Center
Wed 08:54:17 PM 42.2667 -72.1314 257° West 390 449 16,100 344 Climbing Boston Center
Wed 08:55:17 PM 42.2439 -72.2606 257° West 395 455 16,000  Descending Boston Center
Wed 08:56:15 PM 42.2233 -72.3756 256° West 395 455 16,100  Climbing Boston Center
Wed 08:57:16 PM 42.1939 -72.5439 257° West 395 455 16,000 -50 Descending Boston Center
Wed 08:58:16 PM 42.1667 -72.6867 256° West 395 455 16,000  Level Boston Center
Wed 08:59:17 PM 42.1350 -72.8406 255° West 395 455 16,000 50 Level Boston Center
Wed 09:00:17 PM 42.0992 -72.9633 249° West 402 463 16,100  Climbing Boston Center
Wed 09:01:15 PM 42.0544 -73.1167 249° West 402 463 16,000 -403 Descending Boston Center
Wed 09:02:16 PM 42.0183 -73.2422 249° West 402 463 15,300 -942 Descending Boston Center
Wed 09:03:16 PM 41.9797 -73.3756 249° West 402 463 14,100 -650 Descending Boston Center
Wed 09:04:16 PM 41.9347 -73.5256 248° West 396 456 14,000 -45 Descending Boston Center
Wed 09:05:29 PM 41.8981 -73.6450 248° West 390 449 14,000 -857 Level Boston Center
Wed 09:06:29 PM 41.8358 -73.7997 242° Southwest 376 433 12,100 -1,966 Descending Boston Center
Wed 09:07:28 PM 41.7825 -73.8989 234° Southwest 336 387 10,100 -1,729 Descending Boston Center
Wed 09:08:27 PM 41.7353 -73.9869 234° Southwest 306 352 8,700 -1,500 Descending Boston Center
Wed 09:09:28 PM 41.6906 -74.0719 235° Southwest 282 325 7,100 -478 Descending Boston Center
Wed 09:11:48 PM 41.5833 -74.2833 236° Southwest 289 333 7,100  Level New York TRACON
Wed 09:12:48 PM 41.5333 -74.3667 231° Southwest 288 331 7,100  Level New York TRACON
Wed 09:13:42 PM 41.5000 -74.4333 236° Southwest 281 323 7,100 -368 Level New York TRACON
Wed 09:14:42 PM 41.4500 -74.5167 231° Southwest 285 328 6,400 -550 Descending New York TRACON
Wed 09:15:42 PM 41.3667 -74.5333 189° South 298 343 6,000 -300 Descending New York TRACON
Wed 09:16:42 PM 41.3000 -74.4833 151° Southeast 295 339 5,800 -650 Descending New York TRACON
Wed 09:17:42 PM 41.2167 -74.4333 156° South 293 337 4,700 -1,100 Descending New York TRACON
Wed 09:18:42 PM 41.1500 -74.3833 151° Southeast 298 343 3,600 -810 Descending New York TRACON
Wed 09:19:48 PM 41.0667 -74.3333 156° South 298 343 3,000 -450 Descending New York TRACON
Wed 09:20:42 PM 41.0167 -74.2833 143° Southeast 269 310 2,700 -526 Descending New York TRACON
Wed 09:21:42 PM 40.9500 -74.2833 180° South 242 278 2,000 -350 Descending New York TRACON
Wed 09:22:42 PM 40.9000 -74.3167 207° Southwest 193 222 2,000 -200 Level New York TRACON
Wed 09:23:42 PM 40.8667 -74.3500 217° Southwest 161 185 1,600 -429 Descending New York TRACON
Wed 09:24:48 PM 40.8333 -74.3833 217° Southwest 150 173 1,100 -455 Descending New York TRACON

Login

Don't have an account? Register now (free) for customized features, flight alerts, and more!